Time;durP1;ratioP1;P1;durP2;ratioP2;P2;SDS_P1;SDS_P2;PMS_P1;PMS_P2;Temp;Humidity;BMP_temperature;BMP_pressure;BME280_temperature;BME280_humidity;BME280_pressure;Samples;Min_cycle;Max_cycle;Signal;HPM_P1;HPM_P2
2022/12/13 00:01:23;;;;;;;40.13;21.90;;;;;;;-7.43;100.00;101284.31;5014550;28;20022;-82
2022/12/13 00:03:48;;;;;;;40.35;22.35;;;;;;;-7.52;100.00;101264.09;5014639;28;20485;-82
2022/12/13 00:06:13;;;;;;;43.50;23.95;;;;;;;-7.55;100.00;101254.00;5014797;28;20076;-81
2022/12/13 00:08:40;;;;;;;42.65;23.15;;;;;;;-7.46;100.00;101279.25;5014621;28;20045;-82
2022/12/13 00:11:09;;;;;;;38.95;21.98;;;;;;;-7.46;100.00;101274.25;4997025;28;20021;-81
2022/12/13 00:13:34;;;;;;;39.38;23.48;;;;;;;-7.53;100.00;101270.75;5014806;28;20064;-82
2022/12/13 00:16:03;;;;;;;39.45;22.85;;;;;;;-7.64;100.00;101243.81;5014642;28;20132;-82
2022/12/13 00:18:28;;;;;;;41.92;22.70;;;;;;;-7.63;100.00;101253.03;5014383;28;20021;-81
2022/12/13 00:20:54;;;;;;;41.15;22.63;;;;;;;-7.68;100.00;101240.38;5014291;28;20091;-81
2022/12/13 00:23:19;;;;;;;39.65;23.25;;;;;;;-7.55;100.00;101264.88;5014314;28;20030;-82
2022/12/13 00:25:45;;;;;;;36.13;21.88;;;;;;;-7.57;100.00;101264.03;5014292;28;20037;-81
2022/12/13 00:28:10;;;;;;;42.55;22.60;;;;;;;-7.58;100.00;101257.28;5014455;28;20030;-83
2022/12/13 00:30:36;;;;;;;40.00;22.95;;;;;;;-7.57;100.00;101269.03;5014467;28;20025;-82
2022/12/13 00:33:02;;;;;;;38.10;22.20;;;;;;;-7.58;100.00;101269.81;5014229;28;20037;-83
2022/12/13 00:35:27;;;;;;;41.65;23.10;;;;;;;-7.59;100.00;101267.28;5014341;28;20033;-83
2022/12/13 00:37:52;;;;;;;36.45;20.38;;;;;;;-7.58;100.00;101263.97;5014255;28;20022;-83
2022/12/13 00:40:18;;;;;;;40.60;22.83;;;;;;;-7.70;100.00;101246.19;5014279;28;20099;-83
2022/12/13 00:42:43;;;;;;;41.88;23.13;;;;;;;-7.93;100.00;101208.19;5014095;28;20030;-83
2022/12/13 00:45:09;;;;;;;42.65;22.83;;;;;;;-7.88;100.00;101222.47;5014339;28;20109;-83
2022/12/13 00:47:35;;;;;;;37.63;22.25;;;;;;;-7.78;100.00;101235.19;5014180;28;20032;-82
2022/12/13 00:50:01;;;;;;;44.13;22.88;;;;;;;-7.64;100.00;101254.69;5014052;28;20065;-82
2022/12/13 00:52:27;;;;;;;40.75;20.73;;;;;;;-7.74;100.00;101250.31;5014011;28;20034;-82
2022/12/13 00:54:52;;;;;;;38.22;21.00;;;;;;;-7.68;100.00;101257.09;5013954;28;20473;-83
2022/12/13 00:57:17;;;;;;;35.88;21.60;;;;;;;-7.69;100.00;101253.75;5013826;28;20042;-82
2022/12/13 00:59:43;;;;;;;39.05;20.90;;;;;;;-7.68;100.00;101260.44;5013698;28;20121;-82
2022/12/13 01:02:08;;;;;;;37.05;21.08;;;;;;;-7.71;100.00;101249.53;5013946;28;20030;-81
2022/12/13 01:04:33;;;;;;;36.83;20.08;;;;;;;-7.71;100.00;101257.91;5013454;28;20054;-82
2022/12/13 01:06:58;;;;;;;36.80;20.40;;;;;;;-7.73;100.00;101254.53;5013849;28;20036;-83
2022/12/13 01:09:29;;;;;;;33.22;20.02;;;;;;;-7.73;100.00;101254.53;5013778;28;20113;-84
2022/12/13 01:11:57;;;;;;;41.20;21.05;;;;;;;-7.98;100.00;101215.59;5013711;28;20026;-84
2022/12/13 01:14:23;;;;;;;35.13;20.02;;;;;;;-7.87;100.00;101238.38;5013672;28;20029;-82
2022/12/13 01:16:48;;;;;;;32.60;19.60;;;;;;;-7.82;100.00;101247.66;5013618;28;20056;-80
2022/12/13 01:19:13;;;;;;;37.35;21.88;;;;;;;-8.17;100.00;101191.03;4995816;28;20026;-83
2022/12/13 01:21:39;;;;;;;39.08;20.50;;;;;;;-7.85;100.00;101247.63;4995865;28;20491;-83
2022/12/13 01:24:05;;;;;;;34.17;18.50;;;;;;;-7.86;100.00;101245.94;5013484;28;20072;-83
2022/12/13 01:26:31;;;;;;;34.08;19.30;;;;;;;-7.88;100.00;101254.22;5013616;28;20389;-81
2022/12/13 01:28:57;;;;;;;36.90;19.65;;;;;;;-7.90;100.00;101253.34;5013302;28;20030;-84
2022/12/13 01:31:23;;;;;;;33.22;18.80;;;;;;;-7.92;100.00;101255.84;5013371;28;20029;-83
2022/12/13 01:33:48;;;;;;;36.00;20.08;;;;;;;-8.19;100.00;101198.50;5013060;28;20087;-83
2022/12/13 01:36:16;;;;;;;36.53;20.55;;;;;;;-7.93;100.00;101246.63;5013409;28;20033;-84
2022/12/13 01:38:42;;;;;;;41.15;21.75;;;;;;;-7.96;100.00;101249.09;5013496;28;20026;-82
2022/12/13 01:41:12;;;;;;;34.47;20.02;;;;;;;-7.98;100.00;101242.34;5013183;28;20484;-83
2022/12/13 01:43:40;;;;;;;36.85;20.08;;;;;;;-8.00;100.00;101257.34;5013232;28;20057;-84
2022/12/13 01:46:06;;;;;;;33.22;19.23;;;;;;;-8.01;100.00;101250.66;5012271;28;20080;-84
2022/12/13 01:48:38;;;;;;;37.30;20.48;;;;;;;-8.01;100.00;101255.66;5013275;28;20070;-82
2022/12/13 01:51:05;;;;;;;34.22;19.35;;;;;;;-8.37;100.00;101193.19;5013433;28;20105;-80
2022/12/13 01:53:34;;;;;;;34.95;18.23;;;;;;;-8.14;100.00;101236.19;5013302;28;20026;-79
2022/12/13 01:56:11;;;;;;;39.42;19.40;;;;;;;-8.05;100.00;101251.41;5013275;28;20029;-79
2022/12/13 01:58:37;;;;;;;36.38;19.90;;;;;;;-8.33;100.00;101214.09;5013056;28;20042;-79
2022/12/13 02:01:03;;;;;;;35.28;20.45;;;;;;;-8.40;100.00;101203.97;5013046;28;20044;-79
2022/12/13 02:03:28;;;;;;;40.33;20.73;;;;;;;-8.08;100.00;101251.34;4995374;28;20037;-79
2022/12/13 02:06:15;;;;;;;33.78;19.92;;;;;;;-8.25;100.00;101230.13;5013013;28;20030;-79
2022/12/13 02:08:43;;;;;;;35.67;20.55;;;;;;;-8.27;100.00;101230.06;5013144;28;20473;-80
2022/12/13 02:11:09;;;;;;;33.72;19.02;;;;;;;-8.18;100.00;101252.81;5015400;28;20052;-79
2022/12/13 02:13:35;;;;;;;37.90;19.92;;;;;;;-8.21;100.00;101240.22;5017000;28;20380;-80
2022/12/13 02:16:28;;;;;;;36.90;20.13;;;;;;;-8.16;100.00;101246.19;5016902;28;20121;-79
2022/12/13 02:19:02;;;;;;;35.92;19.73;;;;;;;-8.53;100.00;101188.69;5016675;28;20030;-79
2022/12/13 02:21:30;;;;;;;33.72;18.83;;;;;;;-8.20;100.00;101243.59;5016666;28;20022;-79
2022/12/13 02:24:26;;;;;;;35.88;20.30;;;;;;;-8.24;100.00;101245.19;5016807;28;20112;-80
2022/12/13 02:27:03;;;;;;;33.92;19.10;;;;;;;-8.25;100.00;101245.16;5016608;28;20025;-79
2022/12/13 02:29:40;;;;;;;33.83;19.95;;;;;;;-8.26;100.00;101249.31;5016507;28;20033;-80
2022/12/13 02:32:18;;;;;;;36.67;19.88;;;;;;;-8.28;100.00;101245.94;5016689;28;20516;-80
2022/12/13 02:34:50;;;;;;;39.58;19.38;;;;;;;-8.46;100.00;101218.88;5016450;28;20373;-80
2022/12/13 02:37:23;;;;;;;35.45;18.40;;;;;;;-8.29;100.00;101249.25;5016496;28;20152;-79
2022/12/13 02:40:05;;;;;;;35.58;18.77;;;;;;;-8.54;100.00;101207.88;5016502;28;20057;-80
2022/12/13 02:42:39;;;;;;;38.40;20.70;;;;;;;-8.32;100.00;101248.34;5016281;28;20033;-80
2022/12/13 02:45:26;;;;;;;36.35;19.30;;;;;;;-8.32;100.00;101239.19;5016253;28;20531;-80
2022/12/13 02:47:55;;;;;;;35.42;20.02;;;;;;;-8.55;100.00;101203.69;5016186;28;20026;-84
2022/12/13 02:50:22;;;;;;;34.40;18.77;;;;;;;-8.32;100.00;101233.31;5016087;28;20029;-84
2022/12/13 02:52:50;;;;;;;35.45;20.85;;;;;;;-8.32;100.00;101231.66;5016013;28;20030;-84
2022/12/13 02:55:15;;;;;;;41.60;20.88;;;;;;;-8.51;100.00;101194.56;5016194;28;20057;-83
2022/12/13 02:57:44;;;;;;;40.17;21.85;;;;;;;-8.34;100.00;101225.78;5016088;28;20053;-83
2022/12/13 03:00:11;;;;;;;39.03;19.90;;;;;;;-8.35;100.00;101216.63;5015813;28;20045;-84
2022/12/13 03:03:04;;;;;;;37.95;21.02;;;;;;;-8.34;100.00;101222.47;5015812;28;20025;-83
2022/12/13 03:08:37;;;;;;;37.58;20.45;;;;;;;-8.39;100.00;101218.19;5016299;28;20095;-82
2022/12/13 03:11:07;;;;;;;40.13;20.48;;;;;;;-8.42;100.00;101208.13;5015832;28;20091;-80
2022/12/13 03:13:44;;;;;;;38.67;19.58;;;;;;;-8.43;100.00;101213.94;5015845;28;20018;-83
2022/12/13 03:16:20;;;;;;;39.83;20.55;;;;;;;-8.53;100.00;101199.56;5015903;28;20469;-83
2022/12/13 03:18:47;;;;;;;38.88;20.27;;;;;;;-8.47;100.00;101208.84;5015926;28;20423;-84
2022/12/13 03:21:13;;;;;;;36.40;19.77;;;;;;;-8.55;100.00;101188.66;5015352;28;20061;-84
2022/12/13 03:23:39;;;;;;;38.65;20.73;;;;;;;-8.65;100.00;101173.41;5015505;28;20058;-84
2022/12/13 03:26:10;;;;;;;41.17;20.90;;;;;;;-8.40;100.00;101214.00;5015450;28;20068;-83
2022/12/13 03:28:37;;;;;;;35.95;21.05;;;;;;;-8.47;100.00;101203.81;5015514;28;20416;-83
2022/12/13 03:31:02;;;;;;;38.15;20.70;;;;;;;-8.69;100.00;101175.00;5015578;28;20018;-82
2022/12/13 03:33:28;;;;;;;39.05;21.38;;;;;;;-8.41;100.00;101216.47;5015492;28;20032;-83
2022/12/13 03:35:53;;;;;;;37.05;20.73;;;;;;;-8.47;100.00;101211.34;5015432;28;20488;-83
2022/12/13 03:38:19;;;;;;;41.55;22.08;;;;;;;-8.83;100.00;101158.88;5015385;28;20018;-83
2022/12/13 03:40:45;;;;;;;38.13;20.00;;;;;;;-8.41;100.00;101221.50;5015194;28;20461;-82
2022/12/13 03:43:10;;;;;;;43.13;22.25;;;;;;;-8.40;100.00;101224.03;5015153;28;20034;-84
2022/12/13 03:45:36;;;;;;;38.47;20.35;;;;;;;-8.42;100.00;101222.31;5015255;28;20018;-83
2022/12/13 03:48:01;;;;;;;38.10;19.92;;;;;;;-8.55;100.00;101193.69;5014969;28;20041;-82
2022/12/13 03:50:27;;;;;;;43.17;22.55;;;;;;;-8.42;100.00;101214.78;5014989;28;20030;-83
2022/12/13 03:53:00;;;;;;;40.22;21.23;;;;;;;-8.56;100.00;101191.94;5014981;28;20033;-83
2022/12/13 03:55:25;;;;;;;39.58;20.45;;;;;;;-8.39;100.00;101215.69;4997464;28;20389;-82
2022/12/13 03:57:51;;;;;;;38.08;20.10;;;;;;;-8.65;100.00;101171.78;5014722;28;20029;-82
2022/12/13 04:00:16;;;;;;;38.10;20.75;;;;;;;-8.40;100.00;101211.50;5015121;28;20030;-83
2022/12/13 04:02:42;;;;;;;41.83;21.50;;;;;;;-8.44;100.00;101204.75;5014760;28;20500;-82
2022/12/13 04:05:07;;;;;;;39.67;20.05;;;;;;;-8.61;100.00;101173.50;5014818;28;20524;-81
2022/12/13 04:07:32;;;;;;;37.88;21.52;;;;;;;-8.40;100.00;101203.13;5014599;28;20018;-83
2022/12/13 04:09:58;;;;;;;40.67;20.45;;;;;;;-8.42;100.00;101208.13;5014920;28;20450;-84
2022/12/13 04:15:07;;;;;;;40.45;20.73;;;;;;;-8.41;100.00;101211.47;5015063;28;20555;-84
2022/12/13 04:17:33;;;;;;;45.42;21.75;;;;;;;-8.44;100.00;101207.25;5014790;28;20025;-84
2022/12/13 04:19:58;;;;;;;37.95;20.50;;;;;;;-8.45;100.00;101203.06;5014700;28;20050;-83
2022/12/13 04:22:23;;;;;;;40.67;22.77;;;;;;;-8.52;100.00;101192.88;5014275;28;20518;-84
2022/12/13 04:24:49;;;;;;;42.47;22.55;;;;;;;-8.45;100.00;101205.56;5014426;28;20076;-82
2022/12/13 04:27:14;;;;;;;41.17;21.50;;;;;;;-8.55;100.00;101183.66;5012935;28;20390;-85
2022/12/13 04:29:39;;;;;;;39.83;20.17;;;;;;;-8.92;100.00;101123.63;5014373;28;20121;-84
2022/12/13 04:32:05;;;;;;;43.60;22.02;;;;;;;-8.47;100.00;101194.66;5014382;28;20445;-84
2022/12/13 04:34:31;;;;;;;44.63;22.65;;;;;;;-8.57;100.00;101175.25;5013826;28;20064;-84
2022/12/13 04:36:56;;;;;;;42.55;22.92;;;;;;;-8.52;100.00;101183.72;5014125;28;20466;-84
2022/12/13 04:39:21;;;;;;;43.53;22.83;;;;;;;-8.40;100.00;101193.97;5014289;28;20034;-80
2022/12/13 04:41:47;;;;;;;45.90;23.27;;;;;;;-8.60;100.00;101167.69;5014237;28;20038;-79
2022/12/13 04:44:12;;;;;;;48.53;23.33;;;;;;;-8.50;100.00;101182.06;5014023;28;20034;-80
2022/12/13 04:46:37;;;;;;;40.20;21.45;;;;;;;-8.40;100.00;101196.47;5014096;28;20105;-79
2022/12/13 04:49:03;;;;;;;42.20;22.80;;;;;;;-8.49;100.00;101172.91;5014234;28;20019;-79
2022/12/13 04:51:28;;;;;;;43.63;22.15;;;;;;;-8.46;100.00;101175.47;5014154;28;20062;-78
2022/12/13 04:53:54;;;;;;;45.20;21.73;;;;;;;-8.73;100.00;101145.72;5013558;28;20033;-79
2022/12/13 04:56:19;;;;;;;44.25;21.40;;;;;;;-8.41;100.00;101184.75;5014217;28;20108;-79
2022/12/13 04:58:44;;;;;;;48.08;22.38;;;;;;;-8.42;100.00;101189.75;5013736;28;20385;-79
2022/12/13 05:01:10;;;;;;;46.20;23.05;;;;;;;-8.45;100.00;101189.69;5013803;28;20030;-79
2022/12/13 05:03:37;;;;;;;43.10;21.92;;;;;;;-8.48;100.00;101195.47;5013707;28;20026;-80
2022/12/13 05:06:06;;;;;;;45.65;22.85;;;;;;;-8.44;100.00;101197.22;5013756;28;20547;-79
2022/12/13 05:08:32;;;;;;;40.85;21.38;;;;;;;-8.62;100.00;101164.31;5013595;28;20026;-79
2022/12/13 05:10:57;;;;;;;46.75;23.17;;;;;;;-8.66;100.00;101160.03;5013719;28;20504;-79
2022/12/13 05:13:23;;;;;;;46.55;25.20;;;;;;;-8.40;100.00;101183.09;5013717;28;20049;-79
2022/12/13 05:15:57;;;;;;;40.20;22.23;;;;;;;-8.42;100.00;101188.09;5013506;28;20037;-79
2022/12/13 05:18:23;;;;;;;43.38;22.33;;;;;;;-8.57;100.00;101160.22;5013552;28;20022;-79
2022/12/13 05:20:49;;;;;;;47.35;23.85;;;;;;;-8.65;100.00;101150.88;5013668;28;20029;-79
2022/12/13 05:23:16;;;;;;;45.97;21.98;;;;;;;-8.43;100.00;101180.56;5013370;28;20029;-80
2022/12/13 05:25:41;;;;;;;43.53;21.25;;;;;;;-8.51;100.00;101167.88;5013359;28;20026;-80
2022/12/13 05:28:07;;;;;;;43.50;21.60;;;;;;;-8.45;100.00;101173.00;5013468;28;20033;-80
2022/12/13 05:30:32;;;;;;;38.80;21.67;;;;;;;-8.86;100.00;101111.22;5013338;28;20052;-81
2022/12/13 05:32:58;;;;;;;45.72;23.85;;;;;;;-8.77;100.00;101123.94;5013365;28;20470;-80
2022/12/13 05:35:23;;;;;;;52.35;24.02;;;;;;;-8.47;100.00;101168.75;5013630;28;20052;-80
2022/12/13 05:37:48;;;;;;;50.35;24.05;;;;;;;-8.59;100.00;101146.00;5013135;28;20436;-79
2022/12/13 05:40:14;;;;;;;45.22;22.85;;;;;;;-8.47;100.00;101162.09;5013359;28;20032;-79
2022/12/13 05:42:39;;;;;;;48.95;26.33;;;;;;;-8.44;100.00;101158.84;5013300;28;20030;-79
2022/12/13 05:45:06;;;;;;;46.67;22.40;;;;;;;-8.68;100.00;101119.13;5013999;28;20026;-79
2022/12/13 05:47:32;;;;;;;52.47;26.15;;;;;;;-8.59;100.00;101128.47;5017590;28;20029;-79
2022/12/13 05:49:57;;;;;;;46.90;23.52;;;;;;;-8.43;100.00;101156.34;5017476;28;20032;-80
2022/12/13 05:52:23;;;;;;;48.80;24.90;;;;;;;-8.42;100.00;101158.03;5017330;28;20034;-78
2022/12/13 05:54:52;;;;;;;48.45;24.42;;;;;;;-8.39;100.00;101159.75;5017138;28;20030;-77
2022/12/13 05:57:18;;;;;;;46.35;26.23;;;;;;;-8.44;100.00;101153.81;5017181;28;20030;-79
2022/12/13 05:59:43;;;;;;;55.70;26.20;;;;;;;-8.41;100.00;101153.88;5016802;28;20382;-78
2022/12/13 06:02:08;;;;;;;53.10;27.42;;;;;;;-8.57;100.00;101121.84;5017108;28;20044;-79
2022/12/13 06:04:33;;;;;;;46.72;24.67;;;;;;;-8.41;100.00;101158.88;5017122;28;20030;-80
2022/12/13 06:06:59;;;;;;;47.63;24.20;;;;;;;-8.42;100.00;101155.53;5017140;28;20026;-78
2022/12/13 06:09:24;;;;;;;50.08;25.17;;;;;;;-8.53;100.00;101133.59;5016984;28;20469;-79
2022/12/13 06:11:49;;;;;;;53.55;27.80;;;;;;;-8.62;100.00;101121.75;5016857;28;20038;-79
2022/12/13 06:14:15;;;;;;;51.45;25.88;;;;;;;-8.56;100.00;101121.84;5016788;28;20066;-79
2022/12/13 06:16:40;;;;;;;53.67;26.95;;;;;;;-8.38;100.00;101156.44;5016672;28;20500;-79
2022/12/13 06:19:06;;;;;;;52.50;26.60;;;;;;;-8.80;100.00;101091.34;5017108;28;20026;-79
2022/12/13 06:21:32;;;;;;;52.95;27.70;;;;;;;-8.36;100.00;101163.97;5016719;28;20045;-79
2022/12/13 06:23:58;;;;;;;53.70;26.25;;;;;;;-8.39;100.00;101160.59;5011516;23;20055;-79
2022/12/13 06:26:23;;;;;;;52.22;27.33;;;;;;;-8.39;100.00;101169.75;4977802;28;20074;-79
2022/12/13 06:28:49;;;;;;;52.83;25.85;;;;;;;-8.39;100.00;101169.75;4977488;28;20031;-80
2022/12/13 06:31:14;;;;;;;49.25;26.25;;;;;;;-8.42;100.00;101162.19;4959805;28;20035;-82
2022/12/13 06:33:39;;;;;;;49.38;25.55;;;;;;;-8.81;100.00;101098.00;4977478;28;20023;-82
2022/12/13 06:36:05;;;;;;;46.28;24.70;;;;;;;-8.42;100.00;101160.53;4977588;28;20057;-82
2022/12/13 06:38:32;;;;;;;47.03;23.45;;;;;;;-8.42;100.00;101168.06;4977121;28;20075;-83
2022/12/13 06:41:11;;;;;;;47.75;24.92;;;;;;;-8.44;100.00;101167.19;4977413;28;20069;-81
2022/12/13 06:43:37;;;;;;;52.30;24.90;;;;;;;-8.44;100.00;101169.69;4977179;28;20064;-80
2022/12/13 06:46:04;;;;;;;49.00;23.92;;;;;;;-8.52;100.00;101165.34;4977145;28;20031;-83
2022/12/13 06:48:29;;;;;;;49.17;24.65;;;;;;;-8.73;100.00;101128.22;4977298;28;20041;-81
2022/12/13 06:50:59;;;;;;;50.25;25.92;;;;;;;-8.73;100.00;101129.06;4977160;28;20449;-82
2022/12/13 06:53:24;;;;;;;45.65;23.23;;;;;;;-8.82;100.00;101105.50;4977289;28;20034;-82
2022/12/13 06:55:50;;;;;;;53.55;26.40;;;;;;;-8.53;100.00;101167.00;4974409;28;20093;-82
2022/12/13 06:58:15;;;;;;;47.63;25.08;;;;;;;-8.74;100.00;101127.38;4976984;28;20030;-83
2022/12/13 07:00:40;;;;;;;52.45;27.48;;;;;;;-8.53;100.00;101161.16;4976869;28;20089;-78
2022/12/13 07:03:05;;;;;;;47.17;24.63;;;;;;;-8.57;100.00;101160.22;4976991;28;20026;-81
2022/12/13 07:05:31;;;;;;;55.80;25.67;;;;;;;-8.62;100.00;101166.81;4976912;28;20114;-80
2022/12/13 07:07:56;;;;;;;46.65;22.23;;;;;;;-8.61;100.00;101153.47;4976875;28;20027;-84
2022/12/13 07:10:21;;;;;;;48.58;25.33;;;;;;;-9.02;100.00;101095.94;4976425;28;20070;-80
2022/12/13 07:12:47;;;;;;;48.55;24.33;;;;;;;-8.60;100.00;101162.69;4976754;28;20023;-85
2022/12/13 07:15:12;;;;;;;46.80;23.90;;;;;;;-8.73;100.00;101155.75;4976557;28;20439;-80
2022/12/13 07:17:37;;;;;;;50.85;24.65;;;;;;;-8.62;100.00;101169.31;4976585;28;20031;-79
2022/12/13 07:20:06;;;;;;;51.72;26.50;;;;;;;-8.64;100.00;101165.09;4976621;28;20106;-83
2022/12/13 07:22:32;;;;;;;52.72;26.40;;;;;;;-8.65;100.00;101164.25;4976582;28;20026;-79
2022/12/13 07:24:57;;;;;;;50.13;25.52;;;;;;;-9.00;100.00;101113.47;4976063;28;20486;-79
2022/12/13 07:27:22;;;;;;;50.22;26.60;;;;;;;-8.67;100.00;101160.84;4976479;28;20075;-79
2022/12/13 07:29:48;;;;;;;55.70;27.30;;;;;;;-8.65;100.00;101161.75;4976478;28;20023;-80
2022/12/13 07:32:13;;;;;;;49.38;25.23;;;;;;;-8.64;100.00;101167.59;4976252;28;20055;-79
2022/12/13 07:34:38;;;;;;;48.92;25.73;;;;;;;-8.70;100.00;101161.66;4976367;28;20381;-80
2022/12/13 07:37:04;;;;;;;56.38;28.88;;;;;;;-8.62;100.00;101169.31;4976420;28;20070;-79
2022/12/13 07:39:31;;;;;;;56.35;27.60;;;;;;;-8.59;100.00;101166.88;4976209;28;20030;-79
2022/12/13 07:41:56;;;;;;;52.20;27.27;;;;;;;-8.59;100.00;101166.88;4976124;28;20466;-80
2022/12/13 07:44:22;;;;;;;53.88;28.27;;;;;;;-8.52;100.00;101168.69;4959107;28;20028;-79
2022/12/13 07:46:47;;;;;;;54.15;27.30;;;;;;;-9.70;100.00;100961.97;5145352;23;20111;-80
2022/12/13 07:49:19;;;;;;;53.33;26.80;;;;;;;-9.21;100.00;101063.00;4997405;28;20041;-77
2022/12/13 07:54:50;;;;;;;59.38;28.15;;;;;;;-9.71;100.00;100971.13;5032048;28;20284;-78
2022/12/13 07:57:15;;;;;;;54.05;26.30;;;;;;;-9.28;100.00;101052.00;5034495;28;20026;-78
2022/12/13 07:59:46;;;;;;;60.22;28.88;;;;;;;-9.28;100.00;101037.84;5034745;28;20497;-85
2022/12/13 08:02:12;;;;;;;60.80;29.73;;;;;;;-8.38;100.00;101169.78;5034596;28;20030;-85
2022/12/13 08:04:42;;;;;;;55.13;26.50;;;;;;;-8.34;100.00;101179.88;5034733;28;20025;-83
2022/12/13 08:07:09;;;;;;;61.15;30.55;;;;;;;-8.70;100.00;101101.56;5034062;28;20075;-87
2022/12/13 08:09:34;;;;;;;64.93;30.17;;;;;;;-8.69;100.00;101095.75;5033838;28;20025;-83
2022/12/13 08:12:00;;;;;;;62.70;29.95;;;;;;;-8.22;100.00;101168.41;5034027;28;20032;-84
2022/12/13 08:14:26;;;;;;;62.55;27.77;;;;;;;-8.17;100.00;101163.47;5016717;28;20487;-84
2022/12/13 08:16:51;;;;;;;61.28;28.52;;;;;;;-8.02;100.00;101183.81;5034365;28;20026;-85
2022/12/13 08:19:16;;;;;;;59.50;28.65;;;;;;;-7.96;100.00;101183.94;5034413;28;20033;-84
2022/12/13 08:21:44;;;;;;;72.80;32.38;;;;;;;-7.90;100.00;101179.00;5034229;28;20029;-85
2022/12/13 08:24:10;;;;;;;63.80;31.42;;;;;;;-7.86;100.00;101164.88;5034386;28;20033;-84
2022/12/13 08:26:36;;;;;;;65.93;29.50;;;;;;;-7.76;100.00;101178.41;5033906;28;20030;-83
2022/12/13 08:29:01;;;;;;;65.93;32.13;;;;;;;-7.70;100.00;101183.53;4972948;28;20039;-83
2022/12/13 08:31:27;;;;;;;73.00;34.45;;;;;;;-8.16;100.00;101098.38;4973305;28;20039;-84
2022/12/13 08:33:52;;;;;;;74.60;35.15;;;;;;;-7.62;100.00;101182.00;4973035;28;20047;-84
2022/12/13 08:36:23;;;;;;;72.72;35.25;;;;;;;-7.65;100.00;101164.41;4973260;28;20039;-86
2022/12/13 08:38:51;;;;;;;81.07;38.15;;;;;;;-7.84;100.00;101120.63;4973085;28;20101;-86
2022/12/13 08:41:18;;;;;;;76.97;33.45;;;;;;;-7.41;100.00;101179.81;4972810;28;20561;-82
2022/12/13 08:43:43;;;;;;;82.45;36.25;;;;;;;-7.34;100.00;101171.59;4973032;28;20470;-81
2022/12/13 08:46:09;;;;;;;76.22;35.88;;;;;;;-7.18;100.00;101181.84;4972977;28;20026;-81
2022/12/13 08:48:34;;;;;;;82.40;37.65;;;;;;;-7.51;100.00;101121.16;4972661;28;20039;-84
2022/12/13 08:51:07;;;;;;;74.85;37.67;;;;;;;-7.22;100.00;101168.41;4972374;28;20086;-81
2022/12/13 08:53:33;;;;;;;73.90;37.28;;;;;;;-6.98;100.00;101193.88;4972988;28;20093;-82
2022/12/13 08:56:00;;;;;;;78.22;38.90;;;;;;;-6.92;100.00;101195.63;4972149;28;20089;-83
2022/12/13 08:58:26;;;;;;;75.93;36.92;;;;;;;-6.82;100.00;101204.13;4972648;28;20110;-82
2022/12/13 09:00:51;;;;;;;107.18;45.88;;;;;;;-6.70;100.00;101199.25;5024493;28;20128;-84
2022/12/13 09:03:16;;;;;;;84.70;37.05;;;;;;;-6.62;100.00;101210.25;5015267;28;20117;-83
2022/12/13 09:05:45;;;;;;;82.55;36.90;;;;;;;-6.98;100.00;101125.22;5013756;28;20030;-81
2022/12/13 09:08:17;;;;;;;78.75;37.63;;;;;;;-7.00;100.00;101099.28;5064130;23;20413;-84
2022/12/13 09:10:56;;;;;;;83.72;39.85;;;;;;;-6.79;100.00;101116.28;5013493;28;20189;-81
2022/12/13 09:13:36;;;;;;;80.65;41.20;;;;;;;-6.34;100.00;101167.91;5011838;28;20042;-83
2022/12/13 09:16:11;;;;;;;78.82;37.85;;;;;;;-6.12;100.00;101197.47;5012068;28;20568;-80
2022/12/13 09:18:40;;;;;;;72.03;36.22;;;;;;;-6.25;100.00;101161.31;5013391;28;20018;-77
2022/12/13 09:21:20;;;;;;;81.35;38.65;;;;;;;-6.88;100.00;101043.34;5013316;28;20478;-81
2022/12/13 09:23:55;;;;;;;78.65;38.85;;;;;;;-5.85;100.00;101204.41;5013068;28;20080;-78
2022/12/13 09:26:30;;;;;;;82.13;39.75;;;;;;;-6.90;100.00;101015.72;5013145;28;20022;-81
2022/12/13 09:28:55;;;;;;;84.78;41.08;;;;;;;-6.28;100.00;101100.97;5013076;28;20052;-78
2022/12/13 09:31:20;;;;;;;79.90;38.80;;;;;;;-6.20;100.00;101116.94;5013278;28;20034;-78
2022/12/13 09:33:46;;;;;;;78.68;40.53;;;;;;;-5.92;100.00;101134.81;5013194;28;20057;-81
2022/12/13 09:36:17;;;;;;;83.35;39.85;;;;;;;-5.96;100.00;101118.84;5013211;28;20462;-79
2022/12/13 09:38:43;;;;;;;77.32;39.92;;;;;;;-6.03;100.00;101086.94;5013303;28;20112;-79
2022/12/13 09:41:21;;;;;;;78.60;40.38;;;;;;;-5.23;100.00;101206.63;5013229;28;20069;-77
2022/12/13 09:43:51;;;;;;;77.93;38.17;;;;;;;-5.13;100.00;101207.53;4994373;28;20037;-83
2022/12/13 09:46:36;;;;;;;81.70;42.55;;;;;;;-5.50;100.00;101125.09;5013414;28;20099;-82
2022/12/13 09:49:08;;;;;;;73.43;35.75;;;;;;;-4.92;100.00;101212.72;5013338;28;20132;-83
2022/12/13 09:51:47;;;;;;;77.30;36.95;;;;;;;-5.93;100.00;101012.44;5013230;28;20030;-82
2022/12/13 09:54:19;;;;;;;80.97;42.10;;;;;;;-5.75;100.00;101035.16;5013127;28;20034;-81
2022/12/13 09:57:00;;;;;;;;;;;;;;;-4.71;100.00;101189.38;5011872;28;20037;-79
2022/12/13 09:59:32;;;;;;;73.75;36.47;;;;;;;-4.60;100.00;101184.38;5012795;28;19917;-81
2022/12/13 10:02:13;;;;;;;78.40;38.05;;;;;;;-4.52;100.00;101178.53;5013125;28;20060;-86
2022/12/13 10:04:38;;;;;;;74.13;36.13;;;;;;;-4.44;100.00;101181.06;4995803;28;20109;-86
2022/12/13 10:07:16;;;;;;;74.82;38.80;;;;;;;-4.34;100.00;101181.09;5013212;28;20124;-87
2022/12/13 10:09:42;;;;;;;76.78;35.78;;;;;;;-4.36;100.00;101155.06;5012532;28;20532;-83
2022/12/13 10:12:23;;;;;;;67.88;35.03;;;;;;;-4.83;100.00;101068.38;5012906;28;20541;-82
2022/12/13 10:14:58;;;;;;;65.07;32.70;;;;;;;-4.78;100.00;101061.69;5011935;28;20117;-83
2022/12/13 10:17:33;;;;;;;63.25;34.28;;;;;;;-4.02;100.00;101179.53;4995199;28;20033;-86
2022/12/13 10:20:17;;;;;;;70.78;34.15;;;;;;;-3.97;100.00;101168.59;5012882;28;20465;-84
2022/12/13 10:22:45;;;;;;;67.50;32.97;;;;;;;-4.50;100.00;101068.50;5012807;28;20030;-79
2022/12/13 10:27:50;;;;;;;68.63;34.75;;;;;;;-4.77;100.00;100992.81;5029212;23;20517;-82
2022/12/13 10:30:21;;;;;;;66.05;33.10;;;;;;;-3.97;100.00;101110.59;5012989;28;20057;-80
2022/12/13 10:32:51;;;;;;;62.15;33.03;;;;;;;-3.69;100.00;101141.72;4998390;28;20473;-89
2022/12/13 10:35:33;;;;;;;65.15;32.08;;;;;;;-3.88;100.00;101113.13;5016459;28;20045;-85
2022/12/13 10:38:23;;;;;;;62.55;31.13;;;;;;;-3.61;100.00;101147.63;5016497;28;20118;-88
2022/12/13 10:40:48;;;;;;;60.88;31.58;;;;;;;-4.19;100.00;101043.31;5015837;28;20033;-81
2022/12/13 10:43:15;;;;;;;62.08;31.40;;;;;;;-3.56;100.00;101132.47;5016142;28;20036;-87
2022/12/13 10:46:01;;;;;;;64.15;31.20;;;;;;;-4.04;100.00;101053.41;5016247;28;20358;-87
2022/12/13 10:48:56;;;;;;;61.72;31.55;;;;;;;-3.79;100.00;101087.91;5016072;28;20064;-82
2022/12/13 10:51:21;;;;;;;63.33;30.17;;;;;;;-4.43;100.00;100979.44;5015693;28;20370;-79
2022/12/13 10:53:59;;;;;;;68.43;32.28;;;;;;;-3.48;100.00;101128.25;5015926;28;20040;-76
2022/12/13 10:56:48;;;;;;;57.63;31.02;;;;;;;-3.99;100.00;101030.72;5016150;28;20079;-80
2022/12/13 10:59:33;;;;;;;64.97;31.80;;;;;;;-4.07;100.00;101018.09;5023024;23;20054;-80
2022/12/13 11:04:33;;;;;;;53.25;30.67;;;;;;;-3.32;100.00;101106.38;5009892;28;20046;-80
2022/12/13 11:07:19;;;;;;;61.95;29.88;;;;;;;-3.27;100.00;101107.19;5015910;28;20125;-83
2022/12/13 11:09:49;;;;;;;64.10;31.88;;;;;;;-3.43;100.00;101052.53;5015717;28;20033;-85
2022/12/13 11:12:26;;;;;;;58.08;29.58;;;;;;;-4.08;100.00;100963.47;5015551;28;20188;-79
2022/12/13 11:15:05;;;;;;;55.17;28.88;;;;;;;-3.57;100.00;101037.41;5015396;28;20045;-79
2022/12/13 11:17:49;;;;;;;54.65;29.25;;;;;;;-3.76;100.00;101006.31;5015521;28;20022;-81
2022/12/13 11:20:19;;;;;;;56.83;29.17;;;;;;;-3.24;100.00;101090.38;4998376;28;20049;-80
2022/12/13 11:22:51;;;;;;;58.42;30.65;;;;;;;-3.35;100.00;101063.44;4997762;28;20477;-80